Time;durP1;ratioP1;P1;durP2;ratioP2;P2;SDS_P1;SDS_P2;PMS_P1;PMS_P2;Temp;Humidity;BMP_temperature;BMP_pressure;BME280_temperature;BME280_humidity;BME280_pressure;Samples;Min_cycle;Max_cycle;Signal;HPM_P1;HPM_P2
2022/08/03 00:01:41;;;;;;;;;31.50;30.50;;;;;30.86;nan;99363.47;5138241;27;8871;-74
2022/08/03 00:04:10;;;;;;;;;31.75;30.75;;;;;30.91;nan;99363.09;5131698;27;8873;-76
2022/08/03 00:06:40;;;;;;;;;26.75;25.75;;;;;30.84;nan;99367.28;5139538;27;8865;-74
2022/08/03 00:09:10;;;;;;;;;26.50;26.00;;;;;30.83;nan;99365.56;5122661;27;8873;-75
2022/08/03 00:11:38;;;;;;;;;31.50;29.75;;;;;30.69;nan;99362.25;5142614;27;8861;-75
2022/08/03 00:14:07;;;;;;;;;27.75;27.75;;;;;30.64;nan;99360.94;5133427;27;8838;-75
2022/08/03 00:16:36;;;;;;;;;27.00;26.75;;;;;30.64;nan;99361.81;5132038;27;8857;-78
2022/08/03 00:19:05;;;;;;;;;28.75;28.25;;;;;30.56;nan;99355.38;5131889;27;8860;-75
2022/08/03 00:21:33;;;;;;;;;30.25;29.75;;;;;30.51;nan;99355.78;5129955;27;8851;-74
2022/08/03 00:24:04;;;;;;;;;30.50;28.00;;;;;30.48;nan;99359.59;5131209;27;8884;-75
2022/08/03 00:26:33;;;;;;;;;30.00;30.00;;;;;30.46;nan;99356.19;5078488;27;8880;-75
2022/08/03 00:29:02;;;;;;;;;29.25;28.75;;;;;30.35;nan;99356.25;5111628;27;8858;-75
2022/08/03 00:31:30;;;;;;;;;31.00;28.00;;;;;30.16;nan;99356.94;5134107;27;8865;-75
2022/08/03 00:34:19;;;;;;;;;30.25;30.25;;;;;30.04;nan;99357.97;5132055;27;8926;-74
2022/08/03 00:36:57;;;;;;;;;29.75;29.00;;;;;29.89;nan;99350.25;5083701;27;8853;-76
2022/08/03 00:39:27;;;;;;;;;31.75;28.50;;;;;29.86;nan;99350.50;5100113;27;8862;-75
2022/08/03 00:41:55;;;;;;;;;29.50;29.50;;;;;29.83;nan;99363.34;5116855;27;8851;-76
2022/08/03 00:44:24;;;;;;;;;29.75;27.75;;;;;29.81;nan;99355.41;5152181;27;8835;-77
2022/08/03 00:46:53;;;;;;;;;32.50;31.50;;;;;29.73;nan;99355.19;5131801;27;8826;-76
2022/08/03 00:49:22;;;;;;;;;28.50;27.25;;;;;29.82;nan;99356.25;5062834;27;8974;-76
2022/08/03 00:51:51;;;;;;;;;28.50;28.50;;;;;29.85;nan;99358.69;5150708;27;8967;-77
2022/08/03 00:54:20;;;;;;;;;29.00;28.25;;;;;29.82;nan;99353.56;5126619;27;8839;-77
2022/08/03 00:56:51;;;;;;;;;31.25;30.50;;;;;29.82;nan;99349.03;5147702;27;8934;-75
2022/08/03 00:59:27;;;;;;;;;31.50;29.75;;;;;29.79;nan;99349.28;5096853;27;8896;-77
2022/08/03 01:01:56;;;;;;;;;35.00;30.25;;;;;29.82;nan;99349.03;5082886;28;8865;-74
2022/08/03 01:04:25;;;;;;;;;33.00;30.00;;;;;29.65;nan;99341.50;5086063;28;8869;-75
2022/08/03 01:07:03;;;;;;;;;32.00;31.25;;;;;29.68;nan;99346.63;5085503;28;8924;-75
2022/08/03 01:09:46;;;;;;;;;36.50;34.00;;;;;29.66;nan;99343.19;5052612;28;8892;-78
2022/08/03 01:12:25;;;;;;;;;30.75;30.75;;;;;29.60;nan;99347.25;5050947;28;8911;-74
2022/08/03 01:15:02;;;;;;;;;37.50;34.25;;;;;29.34;nan;99350.28;5085637;28;9696;-78
2022/08/03 01:17:36;;;;;;;;;31.75;29.75;;;;;29.18;nan;99343.59;5085687;28;8891;-75
2022/08/03 01:20:09;;;;;;;;;35.25;31.75;;;;;29.29;nan;99346.25;5084631;28;8975;-76
2022/08/03 01:23:17;;;;;;;;;31.50;31.00;;;;;29.60;nan;99349.09;5082793;28;8925;-77
2022/08/03 01:25:59;;;;;;;;;34.00;32.00;;;;;29.52;nan;99353.25;5084119;28;8868;-77
2022/08/03 01:28:47;;;;;;;;;34.75;32.00;;;;;29.55;nan;99353.03;5068577;28;8899;-79
2022/08/03 01:31:22;;;;;;;;;34.25;31.75;;;;;29.45;nan;99346.72;5085362;28;8893;-77
2022/08/03 01:33:57;;;;;;;;;31.75;31.50;;;;;29.35;nan;99346.59;5107143;27;9672;-77
2022/08/03 01:36:32;;;;;;;;;35.25;32.25;;;;;29.42;nan;99341.59;5128638;27;8887;-76
2022/08/03 01:39:02;;;;;;;;;34.50;32.50;;;;;29.37;nan;99354.53;5129085;27;8859;-76
2022/08/03 01:41:34;;;;;;;;;29.25;28.50;;;;;29.35;nan;99351.97;5128653;27;8869;-75
2022/08/03 01:44:06;;;;;;;;;29.00;28.00;;;;;29.29;nan;99351.63;5074154;27;8868;-74
2022/08/03 01:46:58;;;;;;;;;34.50;30.00;;;;;29.29;nan;99354.31;5128626;27;9003;-75
2022/08/03 01:49:30;;;;;;;;;30.75;28.50;;;;;29.27;nan;99353.59;5128972;27;8845;-75
2022/08/03 01:52:00;;;;;;;;;30.75;28.75;;;;;29.30;nan;99350.63;5128518;27;8887;-76
2022/08/03 01:54:36;;;;;;;;;31.00;30.00;;;;;29.30;nan;99347.94;5128634;27;8837;-76
2022/08/03 01:57:06;;;;;;;;;27.00;26.75;;;;;29.09;nan;99353.19;5113053;27;8833;-77
2022/08/03 01:59:36;;;;;;;;;29.50;28.50;;;;;29.17;nan;99342.75;5129567;27;8907;-76
2022/08/03 02:02:08;;;;;;;;;32.00;27.50;;;;;29.16;nan;99344.56;5113908;27;8848;-76
2022/08/03 02:05:00;;;;;;;;;28.25;28.00;;;;;29.14;nan;99345.66;5149299;27;8853;-75
2022/08/03 02:07:31;;;;;;;;;29.50;28.50;;;;;28.97;nan;99352.38;5133861;27;8854;-75
2022/08/03 02:10:02;;;;;;;;;24.50;24.50;;;;;29.00;nan;99346.75;5134554;27;8870;-74
2022/08/03 02:12:34;;;;;;;;;28.50;27.25;;;;;29.01;nan;99348.44;5130476;27;8851;-75
2022/08/03 02:15:03;;;;;;;;;30.67;29.67;;;;;29.02;nan;99344.81;5130992;27;8891;-74
2022/08/03 02:17:34;;;;;;;;;29.75;29.50;;;;;29.02;nan;99347.50;5149449;27;9623;-75
2022/08/03 02:20:11;;;;;;;;;27.50;26.50;;;;;29.03;nan;99340.28;5150002;27;8827;-75
2022/08/03 02:22:41;;;;;;;;;22.50;22.50;;;;;28.96;nan;99337.22;5010749;27;8880;-77
2022/08/03 02:25:12;;;;;;;;;25.25;25.25;;;;;28.94;nan;99344.53;5128735;27;8854;-76
2022/08/03 02:27:52;;;;;;;;;28.25;27.25;;;;;29.01;nan;99344.91;5110665;27;8865;-78
2022/08/03 02:30:23;;;;;;;;;29.25;27.00;;;;;28.72;nan;99345.44;5113408;27;8833;-76
2022/08/03 02:32:57;;;;;;;;;27.00;26.25;;;;;28.77;nan;99336.03;5128106;27;8924;-76
2022/08/03 02:35:29;;;;;;;;;26.00;25.25;;;;;28.76;nan;99341.50;5128214;27;8841;-76
2022/08/03 02:38:02;;;;;;;;;26.00;25.50;;;;;28.82;nan;99341.03;5128408;27;9034;-77
2022/08/03 02:40:33;;;;;;;;;25.25;24.00;;;;;28.81;nan;99347.38;5128340;27;8853;-75
2022/08/03 02:43:07;;;;;;;;;29.50;27.50;;;;;28.81;nan;99346.50;5110392;27;8846;-76
2022/08/03 02:45:42;;;;;;;;;30.75;29.00;;;;;28.77;nan;99349.44;5129646;27;9740;-77
2022/08/03 02:48:17;;;;;;;;;24.50;24.00;;;;;28.89;nan;99346.78;5129714;27;8935;-77
2022/08/03 02:50:48;;;;;;;;;24.50;24.50;;;;;28.70;nan;99356.28;5147386;27;8971;-76
2022/08/03 02:53:18;;;;;;;;;26.50;26.50;;;;;28.73;nan;99353.34;5149930;27;8866;-76
2022/08/03 02:55:48;;;;;;;;;25.25;24.25;;;;;28.69;nan;99353.72;5130142;27;8843;-76
2022/08/03 02:58:20;;;;;;;;;25.25;24.00;;;;;28.52;nan;99360.41;5149811;27;8839;-75
2022/08/03 03:00:50;;;;;;;;;26.00;26.00;;;;;28.58;nan;99349.19;5131534;27;8863;-76
2022/08/03 03:03:22;;;;;;;;;25.50;25.00;;;;;28.62;nan;99358.72;5149650;27;8970;-75
2022/08/03 03:05:51;;;;;;;;;26.25;26.00;;;;;28.56;nan;99359.19;5131094;27;8847;-76
2022/08/03 03:08:27;;;;;;;;;17.00;17.00;;;;;28.56;nan;99356.50;5131437;27;8935;-75
2022/08/03 03:10:58;;;;;;;;;24.75;24.75;;;;;28.55;nan;99358.34;5083072;27;8837;-76
2022/08/03 03:13:28;;;;;;;;;26.75;24.50;;;;;28.55;nan;99358.34;5127580;27;8901;-75
2022/08/03 03:16:01;;;;;;;;;28.00;26.50;;;;;28.59;nan;99361.63;5129733;27;8850;-78
2022/08/03 03:18:33;;;;;;;;;23.75;22.50;;;;;28.57;nan;99361.75;5127772;27;8877;-75
2022/08/03 03:21:03;;;;;;;;;41.75;36.75;;;;;28.54;nan;99366.50;5127959;27;8965;-75
2022/08/03 03:23:36;;;;;;;;;54.00;45.75;;;;;28.57;nan;99368.94;5140444;27;8874;-75
2022/08/03 03:26:06;;;;;;;;;28.75;28.75;;;;;28.56;nan;99369.91;5148265;27;8908;-76
2022/08/03 03:28:36;;;;;;;;;25.00;25.00;;;;;28.51;nan;99370.25;5132394;27;8830;-75
2022/08/03 03:31:06;;;;;;;;;27.00;26.50;;;;;28.47;nan;99365.22;5127602;27;8857;-76
2022/08/03 03:33:38;;;;;;;;;26.00;26.00;;;;;28.46;nan;99369.75;5138196;27;8931;-74
2022/08/03 03:36:08;;;;;;;;;23.50;23.25;;;;;28.34;nan;99368.88;5150416;27;8839;-77
2022/08/03 03:38:36;;;;;;;;;21.50;21.25;;;;;28.38;nan;99374.88;5115863;27;8831;-75
2022/08/03 03:41:05;;;;;;;;;24.25;24.25;;;;;28.41;nan;99366.56;5152314;27;8863;-75
2022/08/03 03:43:34;;;;;;;;;23.75;23.75;;;;;28.42;nan;99367.44;5148765;27;9064;-77
2022/08/03 03:46:03;;;;;;;;;21.20;21.20;;;;;28.42;nan;99373.66;5131707;27;8848;-77
2022/08/03 03:48:32;;;;;;;;;23.75;23.75;;;;;28.41;nan;99369.25;5131521;27;8837;-76
2022/08/03 03:51:03;;;;;;;;;24.20;24.20;;;;;28.41;nan;99369.25;5132582;27;8911;-76
2022/08/03 03:53:31;;;;;;;;;19.60;18.60;;;;;28.49;nan;99374.03;5149935;27;8962;-75
2022/08/03 03:56:00;;;;;;;;;23.00;21.00;;;;;28.32;nan;99381.56;5151137;27;8851;-76
2022/08/03 03:58:32;;;;;;;;;26.50;26.00;;;;;28.42;nan;99380.84;5064865;27;8864;-76
2022/08/03 04:01:01;;;;;;;;;21.75;21.75;;;;;28.45;nan;99389.50;5131039;27;8891;-76
2022/08/03 04:03:30;;;;;;;;;74.50;64.00;;;;;28.10;nan;99381.47;5133489;27;8841;-77
2022/08/03 04:11:40;;;;;;;;;23.25;21.25;;;;;27.19;nan;99399.69;5064557;28;8918;-76
2022/08/03 04:14:13;;;;;;;;;23.50;22.50;;;;;27.06;nan;99400.69;5051091;28;8850;-77
2022/08/03 04:16:46;;;;;;;;;24.50;24.25;;;;;27.00;nan;99401.97;5066088;28;8904;-77
2022/08/03 04:19:19;;;;;;;;;21.75;21.75;;;;;27.35;nan;99391.44;5067545;28;8849;-77
2022/08/03 04:21:54;;;;;;;;;32.50;31.50;;;;;27.67;nan;99404.28;5066873;28;8877;-75
2022/08/03 04:24:30;;;;;;;;;20.50;20.50;;;;;27.97;nan;99406.53;5066836;28;8949;-77
2022/08/03 04:27:00;;;;;;;;;52.00;42.75;;;;;28.02;nan;99408.88;5066959;28;8849;-76
2022/08/03 04:29:33;;;;;;;;;24.75;22.50;;;;;27.99;nan;99409.09;5066956;28;8945;-77
2022/08/03 04:32:02;;;;;;;;;20.60;20.20;;;;;28.28;nan;99420.31;5065668;28;8838;-77
2022/08/03 04:34:31;;;;;;;;;25.00;22.75;;;;;28.23;nan;99417.13;5067019;28;8849;-78
2022/08/03 04:37:03;;;;;;;;;25.00;22.60;;;;;28.41;nan;99425.56;5050028;28;8961;-76
2022/08/03 04:39:35;;;;;;;;;22.80;22.80;;;;;28.48;nan;99431.34;5000651;28;8826;-75
2022/08/03 04:42:06;;;;;;;;;20.00;20.00;;;;;28.46;nan;99422.56;5064000;28;8888;-75
2022/08/03 04:44:39;;;;;;;;;25.20;23.20;;;;;28.13;nan;99427.69;5066239;28;9789;-78
2022/08/03 04:47:08;;;;;;;;;22.75;22.75;;;;;27.51;nan;99435.84;5065711;28;8930;-75
2022/08/03 04:49:38;;;;;;;;;23.50;23.50;;;;;27.92;nan;99427.47;5068501;27;8835;-76
2022/08/03 04:52:08;;;;;;;;;22.75;22.75;;;;;27.76;nan;99427.72;5129989;27;8854;-76
2022/08/03 04:54:43;;;;;;;;;21.75;21.75;;;;;27.90;nan;99424.06;5148888;27;8882;-74
2022/08/03 04:57:16;;;;;;;;;20.50;20.50;;;;;27.91;nan;99428.44;5150195;27;8923;-76
2022/08/03 04:59:53;;;;;;;;;27.25;26.00;;;;;27.53;nan;99431.25;5150742;27;8928;-73
2022/08/03 05:02:32;;;;;;;;;25.50;22.75;;;;;27.88;nan;99431.31;5150210;27;8839;-77
2022/08/03 05:05:00;;;;;;;;;24.40;22.20;;;;;27.92;nan;99419.44;5124297;27;8877;-76
2022/08/03 05:07:29;;;;;;;;;24.00;24.00;;;;;28.10;nan;99427.06;5128317;27;8851;-76
2022/08/03 05:10:07;;;;;;;;;21.25;21.00;;;;;28.65;nan;99430.06;5130787;27;8818;-77
2022/08/03 05:12:45;;;;;;;;;23.40;22.60;;;;;28.35;nan;99434.94;5107434;28;8851;-78
2022/08/03 05:15:14;;;;;;;;;27.25;25.50;;;;;28.50;nan;99437.44;5107339;28;8863;-76
2022/08/03 05:17:43;;;;;;;;;23.50;23.25;;;;;28.22;nan;99430.63;5106129;28;8848;-76
2022/08/03 05:20:12;;;;;;;;;28.00;27.50;;;;;28.19;nan;99439.78;5106309;28;8847;-76
2022/08/03 05:22:41;;;;;;;;;24.00;23.50;;;;;28.66;nan;99438.00;5041257;28;8839;-76
2022/08/03 05:25:11;;;;;;;;;25.60;24.80;;;;;28.80;nan;99441.44;5057460;28;8867;-76
2022/08/03 05:27:44;;;;;;;;;20.60;19.80;;;;;28.42;nan;99448.75;5073573;28;8878;-75
2022/08/03 05:30:13;;;;;;;;;27.25;23.25;;;;;28.10;nan;99448.50;5106774;28;8839;-76
2022/08/03 05:32:59;;;;;;;;;22.40;22.40;;;;;28.54;nan;99449.66;5107615;28;8859;-77
2022/08/03 05:35:28;;;;;;;;;21.00;21.00;;;;;28.60;nan;99451.88;5108115;28;8831;-76
2022/08/03 05:38:17;;;;;;;;;21.00;18.00;;;;;28.27;nan;99445.41;5107008;28;8848;-76
2022/08/03 05:40:52;;;;;;;;;21.00;20.00;;;;;28.84;nan;99450.97;5107889;28;8898;-78
2022/08/03 05:43:24;;;;;;;;;20.25;20.25;;;;;29.24;nan;99448.69;5106197;28;8883;-76
2022/08/03 05:45:54;;;;;;;;;25.00;24.25;;;;;28.94;nan;99443.88;5107493;28;8842;-76
2022/08/03 05:48:29;;;;;;;;;26.00;25.00;;;;;28.87;nan;99443.53;5107338;28;8829;-76
2022/08/03 05:50:57;;;;;;;;;21.25;21.00;;;;;28.94;nan;99443.88;5105503;27;8849;-72
2022/08/03 05:53:26;;;;;;;;;22.00;22.00;;;;;29.34;nan;99441.63;5130087;27;9583;-75
2022/08/03 05:55:56;;;;;;;;;27.25;24.00;;;;;29.46;nan;99447.81;5129538;27;8857;-71
2022/08/03 05:58:29;;;;;;;;;27.50;22.00;;;;;29.44;nan;99451.63;5129602;27;8892;-72
2022/08/03 06:00:58;;;;;;;;;25.50;25.50;;;;;29.35;nan;99451.38;5133667;27;8824;-73
2022/08/03 06:03:27;;;;;;;;;27.25;24.25;;;;;29.18;nan;99454.56;5132202;27;8835;-72
2022/08/03 06:05:55;;;;;;;;;28.75;23.50;;;;;29.83;nan;99452.94;5150514;27;8886;-71
2022/08/03 06:08:28;;;;;;;;;22.00;22.00;;;;;30.07;nan;99455.38;5150833;27;9016;-73
2022/08/03 06:10:58;;;;;;;;;30.75;30.50;;;;;29.90;nan;99456.78;5150715;27;8903;-73
2022/08/03 06:13:26;;;;;;;;;33.75;32.50;;;;;30.01;nan;99463.13;5148798;27;8839;-71
2022/08/03 06:15:55;;;;;;;;;32.25;30.50;;;;;29.26;nan;99470.94;5127517;27;8841;-70
2022/08/03 06:18:24;;;;;;;;;36.50;32.75;;;;;28.43;nan;99476.44;5111468;27;8845;-72
2022/08/03 06:20:52;;;;;;;;;42.00;36.75;;;;;28.49;nan;99473.31;5129760;27;8856;-71
2022/08/03 06:23:21;;;;;;;;;48.75;41.50;;;;;28.32;nan;99466.53;5097645;27;8859;-75
2022/08/03 06:25:52;;;;;;;;;45.25;39.25;;;;;28.11;nan;99474.34;5145335;27;8838;-72
2022/08/03 06:28:22;;;;;;;;;47.25;40.25;;;;;28.14;nan;99466.94;5129003;27;8955;-73
2022/08/03 06:31:11;;;;;;;;;47.00;40.25;;;;;29.12;nan;99463.06;5096931;27;8860;-70
2022/08/03 06:33:39;;;;;;;;;46.25;39.00;;;;;28.31;nan;99471.03;5129116;27;8888;-72
2022/08/03 06:36:30;;;;;;;;;50.50;43.00;;;;;28.57;nan;99469.06;5128812;27;8841;-72
2022/08/03 06:38:59;;;;;;;;;47.75;41.00;;;;;29.03;nan;99467.31;5129626;27;8826;-79
2022/08/03 06:41:28;;;;;;;;;50.25;43.00;;;;;28.58;nan;99467.25;5111471;27;9022;-75
2022/08/03 06:43:59;;;;;;;;;51.25;42.25;;;;;29.20;nan;99475.91;5108155;27;8850;-81
2022/08/03 06:46:31;;;;;;;;;52.50;43.75;;;;;29.14;nan;99474.56;5111433;27;8838;-81
2022/08/03 06:49:00;;;;;;;;;49.00;41.00;;;;;29.29;nan;99475.19;5112164;27;8853;-77
2022/08/03 06:51:29;;;;;;;;;50.50;42.25;;;;;30.03;nan;99470.09;5131588;27;8819;-77
2022/08/03 06:54:17;;;;;;;;;46.75;40.00;;;;;30.65;nan;99470.34;5117234;27;8862;-79
2022/08/03 06:56:46;;;;;;;;;48.75;42.00;;;;;31.12;nan;99475.34;5121436;27;8964;-77
2022/08/03 06:59:16;;;;;;;;;57.67;47.67;;;;;30.63;nan;99475.84;5107567;27;8931;-79
2022/08/03 07:02:05;;;;;;;;;56.67;46.33;;;;;29.85;nan;99482.34;5140706;27;9231;-77
2022/08/03 07:04:34;;;;;;;;;49.50;42.25;;;;;29.88;nan;99472.19;5113363;27;9045;-80
2022/08/03 07:07:02;;;;;;;;;47.75;40.00;;;;;30.05;nan;99480.72;5128715;27;8878;-78
2022/08/03 07:09:31;;;;;;;;;37.00;33.75;;;;;29.61;nan;99485.19;5118212;27;8880;-82
2022/08/03 07:12:01;;;;;;;;;33.75;32.25;;;;;29.81;nan;99479.09;5112207;27;8865;-78
2022/08/03 07:14:31;;;;;;;;;27.75;27.00;;;;;29.85;nan;99483.22;5131361;27;8862;-80
2022/08/03 07:16:59;;;;;;;;;23.75;22.75;;;;;29.92;nan;99478.19;5136261;27;8802;-78
2022/08/03 07:19:28;;;;;;;;;21.75;21.75;;;;;30.51;nan;99482.25;5120191;27;8850;-81
2022/08/03 07:21:57;;;;;;;;;25.75;25.25;;;;;30.47;nan;99488.91;5090178;27;8841;-80
2022/08/03 07:24:30;;;;;;;;;26.00;24.00;;;;;30.66;nan;99488.19;5103596;27;8840;-84
2022/08/03 07:26:58;;;;;;;;;24.50;24.50;;;;;30.89;nan;99479.00;5068042;27;8951;-82
2022/08/03 07:29:27;;;;;;;;;21.00;20.25;;;;;30.76;nan;99483.72;5111230;27;8876;-83
2022/08/03 07:31:57;;;;;;;;;20.00;19.00;;;;;31.02;nan;99483.34;5105212;27;8989;-79
2022/08/03 07:34:26;;;;;;;;;21.00;20.00;;;;;31.62;nan;99478.94;5124829;27;8851;-79
2022/08/03 07:36:54;;;;;;;;;20.75;20.50;;;;;31.30;nan;99481.78;5149264;27;8858;-77
2022/08/03 07:39:23;;;;;;;;;20.00;18.00;;;;;31.20;nan;99481.72;5150456;27;8979;-81
2022/08/03 07:41:52;;;;;;;;;22.25;22.00;;;;;31.81;nan;99480.81;5131348;27;8843;-78
2022/08/03 07:44:21;;;;;;;;;23.00;21.75;;;;;31.63;nan;99483.34;5149897;27;8967;-79
2022/08/03 07:46:50;;;;;;;;;21.75;21.75;;;;;32.04;nan;99476.09;5113225;27;8820;-76
2022/08/03 07:49:20;;;;;;;;;21.50;21.00;;;;;32.40;nan;99476.38;5150008;27;8839;-77
2022/08/03 07:52:46;;;;;;;;;19.75;19.75;;;;;32.52;nan;99477.09;5149951;27;8847;-78
2022/08/03 07:54:38;;;;;;;;;17.75;17.75;;;;;31.53;nan;99484.31;5114245;27;8851;-79
2022/08/03 07:57:07;;;;;;;;;23.25;22.25;;;;;31.81;nan;99482.69;5149815;27;8851;-77
2022/08/03 07:59:38;;;;;;;;;20.50;19.75;;;;;32.55;nan;99486.72;5150217;27;8878;-77
2022/08/03 08:02:27;;;;;;;;;20.75;20.75;;;;;32.83;nan;99483.16;5149786;27;9612;-78
2022/08/03 08:04:57;;;;;;;;;17.00;16.00;;;;;33.13;nan;99485.84;5149946;27;8896;-79
2022/08/03 08:07:29;;;;;;;;;24.00;23.00;;;;;32.88;nan;99490.84;5115977;27;8843;-77
2022/08/03 08:09:58;;;;;;;;;23.00;22.25;;;;;32.29;nan;99500.81;5130944;27;9005;-79
2022/08/03 08:12:26;;;;;;;;;24.50;22.25;;;;;31.97;nan;99496.50;5150345;27;8832;-78
2022/08/03 08:14:55;;;;;;;;;20.25;19.25;;;;;31.50;nan;99492.69;5113737;27;8859;-77
2022/08/03 08:17:24;;;;;;;;;17.00;17.00;;;;;32.37;nan;99494.72;5071735;27;8866;-78
2022/08/03 08:19:53;;;;;;;;;17.75;17.50;;;;;32.59;nan;99505.25;5110495;27;8865;-80
2022/08/03 08:22:23;;;;;;;;;17.00;17.00;;;;;33.22;nan;99504.72;5130854;27;8909;-79
2022/08/03 08:24:57;;;;;;;;;22.00;21.00;;;;;33.63;nan;99500.84;5148288;27;8948;-81
2022/08/03 08:27:26;;;;;;;;;20.25;20.25;;;;;33.28;nan;99508.69;5153592;27;8835;-80
2022/08/03 08:29:55;;;;;;;;;19.50;19.00;;;;;32.85;nan;99518.16;5153855;27;9525;-80
2022/08/03 08:32:30;;;;;;;;;20.00;19.50;;;;;32.07;nan;99520.81;5132502;27;9594;-79
2022/08/03 08:34:58;;;;;;;;;19.50;18.75;;;;;32.80;nan;99513.19;5132350;27;8841;-80
2022/08/03 08:37:28;;;;;;;;;20.25;20.25;;;;;33.18;nan;99510.56;5130418;27;8847;-79
2022/08/03 08:39:57;;;;;;;;;20.00;19.75;;;;;32.69;nan;99518.75;5135069;27;8839;-79
2022/08/03 08:42:26;;;;;;;;;22.00;20.00;;;;;33.18;nan;99508.72;5147457;27;8833;-80
2022/08/03 08:44:55;;;;;;;;;17.75;15.75;;;;;33.63;nan;99512.53;5132848;27;8850;-80
2022/08/03 08:47:25;;;;;;;;;20.75;20.75;;;;;33.87;nan;99506.56;5130245;27;8859;-80
2022/08/03 08:49:55;;;;;;;;;17.00;17.00;;;;;34.24;nan;99505.66;5134561;27;8883;-79
2022/08/03 08:52:41;;;;;;;;;16.00;16.00;;;;;33.81;nan;99519.88;5097814;27;8819;-80
2022/08/03 08:55:13;;;;;;;;;20.00;19.25;;;;;33.28;nan;99511.38;5141146;27;9626;-81
2022/08/03 08:57:48;;;;;;;;;19.00;18.00;;;;;33.62;nan;99510.81;5131824;27;8822;-81
2022/08/03 09:00:17;;;;;;;;;17.00;17.00;;;;;34.01;nan;99501.63;5147335;27;8859;-80
2022/08/03 09:02:46;;;;;;;;;18.25;17.50;;;;;34.44;nan;99505.47;5081437;27;8835;-79
2022/08/03 09:05:16;;;;;;;;;17.00;17.00;;;;;34.65;nan;99497.03;5154649;27;8870;-82
2022/08/03 09:07:48;;;;;;;;;20.50;18.75;;;;;35.02;nan;99499.53;5153905;27;8935;-81
2022/08/03 09:10:20;;;;;;;;;18.50;17.25;;;;;35.02;nan;99498.69;5121984;27;8984;-80
2022/08/03 09:12:50;;;;;;;;;21.25;21.25;;;;;34.75;nan;99503.25;5132037;27;9561;-73
2022/08/03 09:15:21;;;;;;;;;16.25;16.00;;;;;35.00;nan;99498.00;5131769;27;8826;-71
2022/08/03 09:17:53;;;;;;;;;18.00;18.00;;;;;35.24;nan;99497.34;5080718;27;8849;-81
2022/08/03 09:20:23;;;;;;;;;16.25;16.25;;;;;35.40;nan;99493.84;5108902;27;8849;-84
2022/08/03 09:22:55;;;;;;;;;18.50;18.50;;;;;35.63;nan;99492.22;5086181;27;8843;-82
2022/08/03 09:25:29;;;;;;;;;17.50;16.50;;;;;35.93;nan;99492.69;5113375;27;8868;-80
2022/08/03 09:28:07;;;;;;;;;15.75;14.75;;;;;35.78;nan;99488.94;5119140;27;9646;-82
2022/08/03 09:30:37;;;;;;;;;16.25;15.00;;;;;36.01;nan;99503.59;5058449;28;8864;-80
2022/08/03 09:33:08;;;;;;;;;15.00;15.00;;;;;35.94;nan;99498.97;5090159;28;8971;-81
2022/08/03 09:35:44;;;;;;;;;14.25;14.25;;;;;36.01;nan;99497.28;5057569;28;8845;-82
2022/08/03 09:38:25;;;;;;;;;15.75;15.25;;;;;36.01;nan;99489.16;5044636;28;9372;-82
2022/08/03 09:40:55;;;;;;;;;16.75;16.25;;;;;36.16;nan;99495.63;5033288;28;8843;-82
2022/08/03 09:43:27;;;;;;;;;18.00;17.00;;;;;35.90;nan;99484.91;5047394;28;8952;-80
2022/08/03 09:46:03;;;;;;;;;18.00;18.00;;;;;36.08;nan;99487.47;5036461;28;8939;-81
2022/08/03 09:48:33;;;;;;;;;22.25;22.25;;;;;36.22;nan;99480.56;5029789;28;8875;-81
2022/08/03 09:51:04;;;;;;;;;20.50;19.75;;;;;36.23;nan;99493.13;4997431;28;8843;-84
2022/08/03 09:53:46;;;;;;;;;16.75;16.75;;;;;36.43;nan;99480.06;5035865;28;8863;-84
2022/08/03 09:56:41;;;;;;;;;15.75;15.50;;;;;36.55;nan;99480.59;5019549;28;8962;-85
2022/08/03 09:59:10;;;;;;;;;19.75;19.75;;;;;35.67;nan;99469.22;5046851;28;8920;-82
2022/08/03 10:01:41;;;;;;;;;18.75;18.75;;;;;35.21;nan;99478.66;5028884;28;8852;-82
2022/08/03 10:04:15;;;;;;;;;19.75;19.25;;;;;35.08;nan;99476.34;5088250;28;8821;-85
2022/08/03 10:06:45;;;;;;;;;20.75;20.25;;;;;35.74;nan;99465.84;5070542;28;8896;-82
2022/08/03 10:09:16;;;;;;;;;17.50;17.00;;;;;36.04;nan;99467.94;5069475;27;8841;-81
2022/08/03 10:11:47;;;;;;;;;15.00;14.75;;;;;36.08;nan;99460.31;5130634;27;9059;-82
2022/08/03 10:14:18;;;;;;;;;14.75;14.75;;;;;36.24;nan;99456.81;5115822;27;8841;-82
2022/08/03 10:16:48;;;;;;;;;19.50;19.50;;;;;36.27;nan;99459.19;5118081;27;8845;-81
2022/08/03 10:19:17;;;;;;;;;14.75;14.50;;;;;36.51;nan;99457.50;5117164;27;9017;-83
2022/08/03 10:21:49;;;;;;;;;15.25;15.25;;;;;36.62;nan;99449.84;5113815;27;8840;-81
2022/08/03 10:24:25;;;;;;;;;16.50;15.50;;;;;36.73;nan;99456.84;5096179;27;8852;-80
2022/08/03 10:26:59;;;;;;;;;15.50;15.50;;;;;36.72;nan;99446.13;5111930;27;8848;-82
2022/08/03 10:29:29;;;;;;;;;13.50;13.00;;;;;36.75;nan;99449.34;5136056;27;8842;-83
2022/08/03 10:31:59;;;;;;;;;18.25;18.25;;;;;36.48;nan;99443.22;5110600;27;8841;-82
2022/08/03 10:34:33;;;;;;;;;17.75;17.75;;;;;36.26;nan;99449.34;5111756;27;8864;-86
2022/08/03 10:37:07;;;;;;;;;16.75;16.75;;;;;36.47;nan;99448.84;5089506;27;8880;-82
2022/08/03 10:39:52;;;;;;;;;16.00;16.00;;;;;36.45;nan;99450.88;5125528;27;8841;-84
2022/08/03 10:42:26;;;;;;;;;19.75;19.75;;;;;36.64;nan;99442.38;5121573;27;8871;-82
2022/08/03 10:45:03;;;;;;;;;19.25;18.75;;;;;36.71;nan;99436.28;5135067;27;8895;-82
2022/08/03 10:47:34;;;;;;;;;14.67;14.67;;;;;36.81;nan;99437.78;5078132;27;1160006;-83
2022/08/03 10:50:04;;;;;;;;;22.00;22.00;;;;;37.07;nan;99440.28;5067429;28;9636;-86
2022/08/03 10:52:32;;;;;;;;;21.75;21.00;;;;;37.31;nan;99434.94;5066369;28;8852;-80
2022/08/03 10:58:48;;;;;;;;;21.25;18.75;;;;;37.81;nan;99430.97;5086879;28;8885;-81
2022/08/03 11:01:54;;;;;;;;;16.25;16.25;;;;;37.78;nan;99424.00;5069776;28;9737;-82
2022/08/03 11:04:29;;;;;;;;;17.00;17.00;;;;;36.92;nan;99424.84;5045479;28;8850;-82
2022/08/03 11:07:19;;;;;;;;;15.75;14.75;;;;;37.30;nan;99422.34;5027240;28;8896;-80
2022/08/03 11:09:50;;;;;;;;;17.50;17.50;;;;;37.12;nan;99417.97;5046726;28;8858;-84
2022/08/03 11:12:24;;;;;;;;;17.00;16.25;;;;;37.49;nan;99426.50;4990119;28;8848;-83
2022/08/03 11:14:57;;;;;;;;;16.50;16.50;;;;;37.79;nan;99414.81;4974007;28;8876;-80
2022/08/03 11:17:26;;;;;;;;;10.00;10.00;;;;;37.77;nan;99416.00;5009831;28;8974;-81
2022/08/03 11:19:55;;;;;;;;;14.50;14.50;;;;;37.86;nan;99406.75;4989985;28;8919;-81
2022/08/03 11:22:27;;;;;;;;;12.00;12.00;;;;;37.93;nan;99405.00;5008220;28;8867;-81
2022/08/03 11:24:58;;;;;;;;;14.00;13.50;;;;;38.22;nan;99412.50;4977424;28;8959;-81
2022/08/03 11:27:32;;;;;;;;;13.50;13.25;;;;;38.61;nan;99399.72;5004630;28;8854;-84
2022/08/03 11:30:06;;;;;;;;;11.00;11.00;;;;;38.83;nan;99408.00;5045200;28;9909;-82
2022/08/03 11:33:08;;;;;;;;;12.00;11.00;;;;;39.16;nan;99395.69;5026318;28;8864;-83
2022/08/03 11:36:00;;;;;;;;;13.25;12.50;;;;;39.33;nan;99390.88;4967958;28;8884;-83
2022/08/03 11:38:29;;;;;;;;;14.75;14.50;;;;;39.31;nan;99389.38;4969919;28;8930;-80
2022/08/03 11:41:00;;;;;;;;;10.25;10.25;;;;;39.63;nan;99393.56;4995445;28;8844;-81
2022/08/03 11:43:46;;;;;;;;;12.25;11.25;;;;;39.74;nan;99386.75;5030060;28;8855;-80
2022/08/03 11:46:20;;;;;;;;;13.25;12.75;;;;;38.33;nan;99389.38;5028908;28;8938;-81
2022/08/03 11:49:04;;;;;;;;;11.75;11.75;;;;;39.14;nan;99389.59;5023099;28;8861;-82
2022/08/03 11:51:39;;;;;;;;;11.50;11.50;;;;;38.96;nan;99383.63;5058459;28;8963;-82
2022/08/03 11:54:08;;;;;;;;;12.25;12.25;;;;;39.09;nan;99386.56;5042725;28;8891;-80
2022/08/03 11:56:47;;;;;;;;;10.75;10.75;;;;;39.19;nan;99372.66;5046507;28;8832;-80
2022/08/03 11:59:18;;;;;;;;;14.75;13.75;;;;;39.31;nan;99375.75;5048803;28;8928;-77
2022/08/03 12:01:50;;;;;;;;;11.75;11.75;;;;;39.89;nan;99375.78;5015599;28;8848;-80
2022/08/03 12:04:19;;;;;;;;;13.00;11.75;;;;;39.71;nan;99376.22;4999165;28;8940;-82
2022/08/03 12:07:00;;;;;;;;;11.00;11.00;;;;;39.63;nan;99369.00;5030213;28;8843;-81
2022/08/03 12:09:29;;;;;;;;;13.75;12.50;;;;;39.48;nan;99365.47;5049360;28;8828;-81
2022/08/03 12:11:57;;;;;;;;;13.25;13.25;;;;;39.38;nan;99363.88;5033648;28;8859;-84
2022/08/03 12:14:29;;;;;;;;;13.25;12.25;;;;;40.03;nan;99358.47;5035044;28;8852;-79
2022/08/03 12:17:17;;;;;;;;;11.00;11.00;;;;;40.60;nan;99362.09;5049135;28;8855;-83